Pearisburg, VA (24134)

10:20 AM EDT on April 27, 2017 (GMT -0400)
Robinhood Park | | Change Station

Elev 1850 ft 37.32 °N, 80.71 °W | Updated 17 seconds ago

Partly Cloudy
Partly Cloudy
67.7 °F
Feels Like 67.7 °F
N
0.0
Wind Variable Wind from NW
Gusts 1.6 mph

Today
High -- | Low -- °F
--% Chance of Precip.
Yesterday
High -- | Low -- °F
Precip. -- in
Pressure 29.90 in
Visibility 10.0 miles
Clouds Scattered Clouds 3600 ft
Dew Point 59 °F
Humidity 73%
Rainfall 0.00 in
Snow Depth Not available.
6:32 AM 8:09 PM
New Moon, 2% visible
METAR KPSK 271415Z AUTO 20006G15KT 10SM SCT036 20/10 A2990 RMK AO2 T02020103
Pressure 29.90 in
Visibility 10.0 miles
Clouds Scattered Clouds 3600 ft
Dew Point 59 °F
Humidity 73%
Rainfall 0.00 in
Snow Depth Not available.
6:32 AM 8:09 PM
New Moon, 2% visible
METAR KPSK 271415Z AUTO 20006G15KT 10SM SCT036 20/10 A2990 RMK AO2 T02020103

Get Severe Weather Alerts

Thanks for signing up!

Be on the lookout for a verification email in your inbox.

You'll start receiving the daily forecast at 8 AM.

×

10-Day Weather Forecast

Almanac

Astronomy

Apr. 27, 2017 Rise Set
Actual Time
Civil Twilight
Nautical Twilight
Astronomical Twilight
Moon
Length of Visible Light
Length of Day
Tomorrow will be .
, % of the Moon is Illuminated

Today's Extremes

State Highs State Lows

Community

WunderPhotos

WunderBlog® & News

Nearby

Air Quality

  Air Quality AQ Index Pollutant
Not available.

Snow Depth

Station Depth Elevation

Earthquake Activity

City Distance Mag. Time & Date
Minimum magnitude displayed is 2.5.

Coastal Water Temperatures

Place Temperature

Stations

Nearby Weather Stations

Station Location Temp. Windchill Dew Point Humidity Wind Precip. Elev Updated Type
                   

Watches & Warnings

There are currently no watches in effect.